createdAt,value
2017-06-18T00:00:16.306Z,94.49
2017-06-18T00:00:44.376Z,94.4
2017-06-18T00:01:12.507Z,94.78
2017-06-18T00:01:40.650Z,94.78
2017-06-18T00:02:08.785Z,94.59
2017-06-18T00:02:36.923Z,94.35
2017-06-18T00:03:05.079Z,95.03
2017-06-18T00:03:33.221Z,94.78
2017-06-18T00:04:01.298Z,94.83
2017-06-18T00:04:29.436Z,94.64
2017-06-18T00:04:57.479Z,94.74
2017-06-18T00:05:25.526Z,94.93
2017-06-18T00:05:53.677Z,94.83
2017-06-18T00:06:21.784Z,94.93
2017-06-18T00:06:49.821Z,94.74
2017-06-18T00:07:17.794Z,95.03
2017-06-18T00:07:45.847Z,94.83
2017-06-18T00:08:13.984Z,95.03
2017-06-18T00:08:42.128Z,95.03
2017-06-18T00:09:10.296Z,94.93
2017-06-18T00:09:38.454Z,94.98
2017-06-18T00:10:06.487Z,94.45
2017-06-18T00:10:34.351Z,95.12
2017-06-18T00:11:02.510Z,95.03
2017-06-18T00:11:30.571Z,94.74
2017-06-18T00:11:58.711Z,94.74
2017-06-18T00:12:26.836Z,95.07
2017-06-18T00:12:54.975Z,94.83
2017-06-18T00:13:22.992Z,94.93
2017-06-18T00:13:51.105Z,94.54
2017-06-18T00:14:19.147Z,94.64
2017-06-18T00:14:47.271Z,94.54
2017-06-18T00:15:15.400Z,94.74
2017-06-18T00:15:43.547Z,94.45
2017-06-18T00:16:11.676Z,94.45
2017-06-18T00:16:39.699Z,94.45
2017-06-18T00:17:07.823Z,94.64
2017-06-18T00:17:35.953Z,94.45
2017-06-18T00:18:04.026Z,94.69
2017-06-18T00:18:32.147Z,94.45
2017-06-18T00:19:00.180Z,94.64
2017-06-18T00:19:28.296Z,94.45
2017-06-18T00:19:56.459Z,94.83
2017-06-18T00:20:24.477Z,94.26
2017-06-18T00:20:52.600Z,94.35
2017-06-18T00:21:20.731Z,94.83
2017-06-18T00:21:48.790Z,94.26
2017-06-18T00:22:16.728Z,94.45
2017-06-18T00:22:44.866Z,95.03
2017-06-18T00:23:12.996Z,94.54
2017-06-18T00:23:41.054Z,94.64
2017-06-18T00:24:09.113Z,94.93
2017-06-18T00:24:37.245Z,95.6
2017-06-18T00:25:05.318Z,95.41
2017-06-18T00:25:33.475Z,95.31
2017-06-18T00:26:01.547Z,95.7
2017-06-18T00:26:29.678Z,95.5
2017-06-18T00:26:57.829Z,95.7
2017-06-18T00:27:25.862Z,95.41
2017-06-18T00:27:53.901Z,95.5
2017-06-18T00:28:21.937Z,95.6
2017-06-18T00:28:50.075Z,95.31
2017-06-18T00:29:18.042Z,95.31
2017-06-18T00:29:46.189Z,95.41
2017-06-18T00:30:14.337Z,95.98
2017-06-18T00:30:42.480Z,95.98
2017-06-18T00:31:10.613Z,95.89
2017-06-18T00:31:38.755Z,96.08
2017-06-18T00:32:06.910Z,95.7
2017-06-18T00:32:34.855Z,95.5
2017-06-18T00:33:02.999Z,95.7
2017-06-18T00:33:31.144Z,96.08
2017-06-18T00:33:59.304Z,95.89
2017-06-18T00:34:27.352Z,95.7
2017-06-18T00:34:55.387Z,95.6
2017-06-18T00:35:23.316Z,96.18
2017-06-18T00:35:51.463Z,96.18
2017-06-18T00:36:19.520Z,96.47
2017-06-18T00:36:47.634Z,96.66
2017-06-18T00:37:15.699Z,96.37
2017-06-18T00:37:43.819Z,95.94
2017-06-18T00:38:11.864Z,96.08
2017-06-18T00:38:39.911Z,96.32
2017-06-18T00:39:08.028Z,97.09
2017-06-18T00:39:36.138Z,96.7
2017-06-18T00:40:04.297Z,96.89
2017-06-18T00:40:32.437Z,96.99
2017-06-18T00:41:00.475Z,96.8
2017-06-18T00:41:28.525Z,96.99
2017-06-18T00:41:56.569Z,97.19
2017-06-18T00:42:24.592Z,97.19
2017-06-18T00:42:52.645Z,97.19
2017-06-18T00:43:20.787Z,96.89
2017-06-18T00:43:48.926Z,96.89
2017-06-18T00:44:16.961Z,96.89
2017-06-18T00:44:45.074Z,96.99
2017-06-18T00:45:13.212Z,96.89
2017-06-18T00:45:41.242Z,97.38
2017-06-18T00:46:09.267Z,97.19
2017-06-18T00:46:37.337Z,96.8
2017-06-18T00:47:05.481Z,97.09
2017-06-18T00:47:33.550Z,97.09
2017-06-18T00:48:01.720Z,97.09
2017-06-18T00:48:29.756Z,96.51
2017-06-18T00:48:57.874Z,97.09
2017-06-18T00:49:26.015Z,96.7
2017-06-18T00:49:54.140Z,96.61
2017-06-18T00:50:22.263Z,96.32
2017-06-18T00:50:50.323Z,96.32
2017-06-18T00:51:18.374Z,96.22
2017-06-18T00:51:46.496Z,96.61
2017-06-18T00:52:14.558Z,96.8
2017-06-18T00:52:42.507Z,96.61
2017-06-18T00:53:10.541Z,97.09
2017-06-18T00:53:38.508Z,97.19
2017-06-18T00:54:06.649Z,96.99
2017-06-18T00:54:34.790Z,96.89
2017-06-18T00:55:02.916Z,97.28
2017-06-18T00:55:30.877Z,97.09
2017-06-18T00:55:59.019Z,96.89
2017-06-18T00:56:27.067Z,97.09
2017-06-18T00:56:55.189Z,97.09
2017-06-18T00:57:23.324Z,96.99
2017-06-18T00:57:51.378Z,97.28
2017-06-18T00:58:19.390Z,97.09
2017-06-18T00:58:47.508Z,97.19
2017-06-18T00:59:15.662Z,97.38
2017-06-18T00:59:43.801Z,97.38
2017-06-18T01:00:11.862Z,97.56
2017-06-18T01:00:40.011Z,97.38
2017-06-18T01:01:08.178Z,97.56
2017-06-18T01:01:36.343Z,97.09
2017-06-18T01:02:04.456Z,97.28
2017-06-18T01:02:32.476Z,97.09
2017-06-18T01:03:00.539Z,97.09
2017-06-18T01:03:28.463Z,96.61
2017-06-18T01:03:56.519Z,96.8
2017-06-18T01:04:24.461Z,96.89
2017-06-18T01:04:52.407Z,96.99
2017-06-18T01:05:20.447Z,96.8
2017-06-18T01:05:48.600Z,96.8
2017-06-18T01:06:16.734Z,97.09
2017-06-18T01:06:44.882Z,97.09
2017-06-18T01:07:12.918Z,96.8
2017-06-18T01:07:41.063Z,96.8
2017-06-18T01:08:09.238Z,96.61
2017-06-18T01:08:37.364Z,96.99
2017-06-18T01:09:05.500Z,97.28
2017-06-18T01:09:33.612Z,97.09
2017-06-18T01:10:01.662Z,96.8
2017-06-18T01:10:29.603Z,96.89
2017-06-18T01:10:57.648Z,97.09
2017-06-18T01:11:25.782Z,96.99
2017-06-18T01:11:53.837Z,96.89
2017-06-18T01:12:21.970Z,97.09
2017-06-18T01:12:50.012Z,97.19
2017-06-18T01:13:18.055Z,97.38
2017-06-18T01:13:46.007Z,97.95
2017-06-18T01:14:14.134Z,97.61
2017-06-18T01:14:42.241Z,97.52
2017-06-18T01:15:10.278Z,97.61
2017-06-18T01:15:38.400Z,97.61
2017-06-18T01:16:06.419Z,97.9
2017-06-18T01:16:34.560Z,97.81
2017-06-18T01:17:02.726Z,97.71
2017-06-18T01:17:30.687Z,97.71
2017-06-18T01:17:58.818Z,97.9
2017-06-18T01:18:26.955Z,97.61
2017-06-18T01:18:55.084Z,97.9
2017-06-18T01:19:23.131Z,98.28
2017-06-18T01:19:51.185Z,97.9
2017-06-18T01:20:19.223Z,98.57
2017-06-18T01:20:47.272Z,98.28
2017-06-18T01:21:15.430Z,98.28
2017-06-18T01:21:43.458Z,98.57
2017-06-18T01:22:11.574Z,98.28
2017-06-18T01:22:39.698Z,98.86
2017-06-18T01:23:07.826Z,98.57
2017-06-18T01:23:35.978Z,98.77
2017-06-18T01:24:04.098Z,98.48
2017-06-18T01:24:32.301Z,99.44
2017-06-18T01:25:00.443Z,98.96
2017-06-18T01:25:28.495Z,99.24
2017-06-18T01:25:56.647Z,98.96
2017-06-18T01:26:24.769Z,99.53
2017-06-18T01:26:52.869Z,99.34
2017-06-18T01:27:20.992Z,99.44
2017-06-18T01:27:49.147Z,99.05
2017-06-18T01:28:17.261Z,98.77
2017-06-18T01:28:45.409Z,98.77
2017-06-18T01:29:13.552Z,98.57
2017-06-18T01:29:41.705Z,98.57
2017-06-18T01:30:09.854Z,98.96
2017-06-18T01:30:38.019Z,98
2017-06-18T01:31:06.389Z,98.28
2017-06-18T01:31:35.011Z,98.57
2017-06-18T01:32:03.611Z,98.38
2017-06-18T01:32:32.019Z,98.67
2017-06-18T01:33:00.534Z,98.48
2017-06-18T01:33:29.067Z,98.57
2017-06-18T01:33:57.664Z,97.9
2017-06-18T01:34:26.161Z,98
2017-06-18T01:34:54.690Z,97.61
2017-06-18T01:35:23.306Z,98
2017-06-18T01:35:51.834Z,97.81
2017-06-18T01:36:20.462Z,97.61
2017-06-18T01:36:49.069Z,97.71
2017-06-18T01:37:17.569Z,97.81
2017-06-18T01:37:46.138Z,98.1
2017-06-18T01:38:14.711Z,97.23
2017-06-18T01:38:43.151Z,97.61
2017-06-18T01:39:11.750Z,97.42
2017-06-18T01:39:40.340Z,97.33
2017-06-18T01:40:08.853Z,97.52
2017-06-18T01:40:37.462Z,98
2017-06-18T01:41:06.075Z,97.23
2017-06-18T01:41:34.658Z,98
2017-06-18T01:42:03.233Z,97.71
2017-06-18T01:42:31.743Z,97.81
2017-06-18T01:43:00.596Z,97.81
2017-06-18T01:43:29.113Z,97.81
2017-06-18T01:43:57.713Z,97.71
2017-06-18T01:44:26.333Z,98.28
2017-06-18T01:44:54.933Z,97.9
2017-06-18T01:45:23.455Z,97.9
2017-06-18T01:45:52.059Z,98.67
2017-06-18T01:46:20.551Z,98.96
2017-06-18T01:46:49.145Z,98.96
2017-06-18T01:47:17.665Z,98.96
2017-06-18T01:47:46.282Z,99.15
2017-06-18T01:48:14.798Z,98.48
2017-06-18T01:48:43.404Z,98.77
2017-06-18T01:49:12.000Z,98.57
2017-06-18T01:49:40.609Z,99.24
2017-06-18T01:50:09.116Z,98.77
2017-06-18T01:50:37.749Z,99.53
2017-06-18T01:51:06.251Z,99.29
2017-06-18T01:51:34.763Z,99.48
2017-06-18T01:52:03.367Z,99.73
2017-06-18T01:52:31.891Z,99.48
2017-06-18T01:53:00.417Z,99.01
2017-06-18T01:53:29.045Z,99.39
2017-06-18T01:53:57.566Z,99.44
2017-06-18T01:54:26.172Z,99.68
2017-06-18T01:54:54.779Z,99.99
2017-06-18T01:55:23.294Z,99.99
2017-06-18T01:55:51.901Z,99.87
2017-06-18T01:56:20.526Z,99.96
2017-06-18T01:56:49.119Z,99.87
2017-06-18T01:57:17.631Z,99.87
2017-06-18T01:57:46.129Z,99.99
2017-06-18T01:58:14.545Z,99.99
2017-06-18T01:58:43.162Z,99.99
2017-06-18T01:59:11.688Z,99.99
2017-06-18T01:59:40.144Z,99.99
2017-06-18T02:00:08.763Z,99.99
2017-06-18T02:00:37.398Z,99.48
2017-06-18T02:01:05.904Z,99.96
2017-06-18T02:01:34.408Z,99.99
2017-06-18T02:02:03.016Z,99.99
2017-06-18T02:02:31.643Z,99.99
2017-06-18T02:03:00.153Z,99.99
2017-06-18T02:03:28.755Z,99.99
2017-06-18T02:03:57.269Z,99.99
2017-06-18T02:04:25.774Z,99.99
2017-06-18T02:04:54.263Z,99.96
2017-06-18T02:05:22.872Z,99.99
2017-06-18T02:05:51.453Z,99.99
2017-06-18T02:06:19.964Z,99.99
2017-06-18T02:06:48.476Z,99.99
2017-06-18T02:07:16.998Z,99.99
2017-06-18T02:07:45.602Z,99.99
2017-06-18T02:08:14.211Z,99.99
2017-06-18T02:08:42.831Z,99.99
2017-06-18T02:09:11.433Z,99.96
2017-06-18T02:09:40.063Z,99.99
2017-06-18T02:10:08.518Z,99.99
2017-06-18T02:10:37.021Z,99.99
2017-06-18T02:11:05.638Z,99.99
2017-06-18T02:11:34.262Z,99.99
2017-06-18T02:12:02.864Z,99.99
2017-06-18T02:12:31.490Z,99.96
2017-06-18T02:13:00.085Z,99.99
2017-06-18T02:13:28.517Z,99.99
2017-06-18T02:13:57.108Z,99.99
2017-06-18T02:14:25.614Z,99.99
2017-06-18T02:14:54.225Z,99.99
2017-06-18T02:15:22.819Z,99.96
2017-06-18T02:15:51.416Z,99.99
2017-06-18T02:16:20.045Z,99.99
2017-06-18T02:16:48.580Z,99.99
2017-06-18T02:17:17.133Z,99.87
2017-06-18T02:17:45.748Z,99.99
2017-06-18T02:18:14.258Z,99.99
2017-06-18T02:18:42.815Z,99.68
2017-06-18T02:19:11.421Z,99.96
2017-06-18T02:19:39.934Z,99.99
2017-06-18T02:20:08.532Z,99.99
2017-06-18T02:20:37.140Z,99.99
2017-06-18T02:21:05.630Z,99.99
2017-06-18T02:21:34.082Z,99.99
2017-06-18T02:22:02.720Z,99.99
2017-06-18T02:22:31.335Z,99.99
2017-06-18T02:22:59.851Z,99.99
2017-06-18T02:23:28.459Z,99.99
2017-06-18T02:23:57.078Z,99.99
2017-06-18T02:24:25.659Z,99.99
2017-06-18T02:24:54.273Z,99.99
2017-06-18T02:25:22.777Z,99.99
2017-06-18T02:25:51.372Z,99.99
2017-06-18T02:26:19.983Z,99.99
2017-06-18T02:26:48.566Z,99.99
2017-06-18T02:27:17.194Z,99.99
2017-06-18T02:27:45.823Z,99.99
2017-06-18T02:28:14.401Z,99.99
2017-06-18T02:28:42.933Z,99.99
2017-06-18T02:29:11.528Z,99.99
2017-06-18T02:29:40.128Z,99.99
2017-06-18T02:30:08.706Z,99.99
2017-06-18T02:30:37.308Z,99.99
2017-06-18T02:31:05.886Z,99.99
2017-06-18T02:31:34.492Z,99.99
2017-06-18T02:32:03.121Z,99.99
2017-06-18T02:32:31.620Z,99.99
2017-06-18T02:33:00.241Z,99.99
2017-06-18T02:33:28.844Z,99.99
2017-06-18T02:33:57.466Z,99.99
2017-06-18T02:34:25.886Z,99.99
2017-06-18T02:34:54.493Z,99.99
2017-06-18T02:35:23.118Z,99.99
2017-06-18T02:35:51.970Z,99.99
2017-06-18T02:36:20.494Z,99.99
2017-06-18T02:36:49.004Z,99.99
2017-06-18T02:37:17.625Z,99.99
2017-06-18T02:37:46.230Z,99.96
2017-06-18T02:38:14.837Z,99.96
2017-06-18T02:38:43.438Z,99.96
2017-06-18T02:39:11.930Z,99.96
2017-06-18T02:39:40.553Z,99.99
2017-06-18T02:40:09.073Z,99.99
2017-06-18T02:40:37.679Z,99.99
2017-06-18T02:41:06.214Z,99.99
2017-06-18T02:41:34.801Z,99.96
2017-06-18T02:42:03.420Z,99.99
2017-06-18T02:42:31.951Z,99.82
2017-06-18T02:43:00.525Z,99.87
2017-06-18T02:43:29.042Z,99.99
2017-06-18T02:43:57.667Z,99.39
2017-06-18T02:44:26.249Z,99.24
2017-06-18T02:44:54.875Z,99.34
2017-06-18T02:45:23.267Z,99.24
2017-06-18T02:45:51.910Z,99.05
2017-06-18T02:46:20.600Z,98.96
2017-06-18T02:47:08.096Z,99.48
2017-06-18T02:47:36.044Z,99.29
2017-06-18T02:48:04.187Z,99.43
2017-06-18T02:48:32.250Z,99.43
2017-06-18T02:49:00.369Z,99.24
2017-06-18T02:49:28.413Z,99.24
2017-06-18T02:49:56.380Z,99.43
2017-06-18T02:50:24.314Z,99.05
2017-06-18T02:50:52.383Z,99.43
2017-06-18T02:51:20.682Z,99.53
2017-06-18T02:51:48.798Z,99.43
2017-06-18T02:52:16.932Z,99.24
2017-06-18T02:52:45.031Z,99.53
2017-06-18T02:53:13.355Z,99.15
2017-06-18T02:53:41.489Z,99.43
2017-06-18T02:54:09.634Z,99.43
2017-06-18T02:54:37.665Z,98.96
2017-06-18T02:55:05.824Z,99.34
2017-06-18T02:55:33.892Z,99.24
2017-06-18T02:56:02.033Z,99.15
2017-06-18T02:56:30.152Z,99.99
2017-06-18T02:56:58.191Z,99.91
2017-06-18T02:57:26.243Z,99.99
2017-06-18T02:57:54.210Z,99.99
2017-06-18T02:58:22.233Z,99.99
2017-06-18T02:58:50.273Z,99.99
2017-06-18T02:59:18.346Z,99.99
2017-06-18T02:59:46.375Z,99.99
2017-06-18T03:00:14.418Z,99.99
2017-06-18T03:00:42.566Z,99.99
2017-06-18T03:01:10.683Z,99.99
2017-06-18T03:01:38.696Z,99.99
2017-06-18T03:02:06.773Z,99.99
2017-06-18T03:02:34.725Z,99.99
2017-06-18T03:03:02.877Z,99.99
2017-06-18T03:03:30.914Z,99.99
2017-06-18T03:03:59.074Z,99.99
2017-06-18T03:04:27.217Z,99.99
2017-06-18T03:04:55.361Z,99.99
2017-06-18T03:05:23.483Z,99.99
2017-06-18T03:05:51.644Z,99.99
2017-06-18T03:06:19.681Z,99.99
2017-06-18T03:06:47.806Z,99.99
2017-06-18T03:07:15.880Z,99.99
2017-06-18T03:07:44.024Z,99.99
2017-06-18T03:08:12.039Z,99.99
2017-06-18T03:08:40.175Z,99.99
2017-06-18T03:09:08.148Z,99.99
2017-06-18T03:09:36.207Z,99.99
2017-06-18T03:10:04.314Z,99.99
2017-06-18T03:10:32.355Z,99.99
2017-06-18T03:11:00.538Z,99.99
2017-06-18T03:11:28.657Z,99.99
2017-06-18T03:11:56.782Z,99.99
2017-06-18T03:12:24.942Z,99.99
2017-06-18T03:12:53.050Z,99.99
2017-06-18T03:13:21.081Z,99.99
2017-06-18T03:13:49.225Z,99.99
2017-06-18T03:14:17.365Z,99.99
2017-06-18T03:14:45.500Z,99.99
2017-06-18T03:15:13.619Z,99.99
2017-06-18T03:15:41.743Z,99.99
2017-06-18T03:16:09.893Z,99.99
2017-06-18T03:16:38.049Z,99.99
2017-06-18T03:17:06.096Z,99.99
2017-06-18T03:17:34.254Z,99.99
2017-06-18T03:18:02.313Z,99.99
2017-06-18T03:18:30.459Z,99.99
2017-06-18T03:18:58.584Z,99.99
2017-06-18T03:19:26.733Z,99.99
2017-06-18T03:19:54.877Z,99.99
2017-06-18T03:20:22.936Z,99.99
2017-06-18T03:20:51.440Z,99.99
2017-06-18T03:21:19.492Z,99.99
2017-06-18T03:21:47.616Z,99.99
2017-06-18T03:22:15.753Z,99.99
2017-06-18T03:22:43.903Z,99.99
2017-06-18T03:23:12.012Z,99.99
2017-06-18T03:23:40.140Z,99.99
2017-06-18T03:24:08.186Z,99.99
2017-06-18T03:24:36.312Z,99.99
2017-06-18T03:25:04.447Z,99.99
2017-06-18T03:25:32.561Z,99.99
2017-06-18T03:26:00.696Z,99.99
2017-06-18T03:26:28.682Z,99.99
2017-06-18T03:26:56.813Z,99.99
2017-06-18T03:27:24.765Z,99.99
2017-06-18T03:27:52.892Z,99.99
2017-06-18T03:28:21.033Z,99.99
2017-06-18T03:28:49.203Z,99.99
2017-06-18T03:29:17.336Z,99.99
2017-06-18T03:29:45.467Z,99.99
2017-06-18T03:30:13.433Z,99.99
2017-06-18T03:30:41.596Z,99.99
2017-06-18T03:31:09.741Z,99.99
2017-06-18T03:31:37.779Z,99.99
2017-06-18T03:32:05.880Z,99.99
2017-06-18T03:32:33.939Z,99.99
2017-06-18T03:33:02.061Z,99.99
2017-06-18T03:33:30.193Z,99.99
2017-06-18T03:33:58.218Z,99.99
2017-06-18T03:34:26.342Z,99.99
2017-06-18T03:34:54.458Z,99.99
2017-06-18T03:35:22.587Z,99.99
2017-06-18T03:35:50.602Z,99.99
2017-06-18T03:36:18.630Z,99.99
2017-06-18T03:36:46.663Z,99.99
2017-06-18T03:37:14.698Z,99.99
2017-06-18T03:37:42.804Z,99.99
2017-06-18T03:38:10.878Z,99.99
2017-06-18T03:38:39.011Z,99.99
2017-06-18T03:39:07.131Z,99.99
2017-06-18T03:39:35.248Z,99.99
2017-06-18T03:40:03.292Z,99.99
2017-06-18T03:40:31.318Z,99.99
2017-06-18T03:40:59.450Z,99.99
2017-06-18T03:41:27.789Z,99.99
2017-06-18T03:41:55.821Z,99.99
2017-06-18T03:42:23.751Z,99.99
2017-06-18T03:42:51.777Z,99.99
2017-06-18T03:43:19.823Z,99.99
2017-06-18T03:43:47.971Z,99.99
2017-06-18T03:44:16.004Z,99.99
2017-06-18T03:44:44.145Z,99.99
2017-06-18T03:45:12.181Z,99.99
2017-06-18T03:45:40.308Z,99.99
2017-06-18T03:46:08.453Z,99.99
2017-06-18T03:46:36.390Z,99.99
2017-06-18T03:47:04.534Z,99.99
2017-06-18T03:47:32.669Z,99.99
2017-06-18T03:48:00.816Z,99.99
2017-06-18T03:48:28.961Z,99.99
2017-06-18T03:48:57.006Z,99.99
2017-06-18T03:49:25.124Z,99.99
2017-06-18T03:49:53.255Z,99.99
2017-06-18T03:50:21.402Z,99.99
2017-06-18T03:50:49.466Z,99.99
2017-06-18T03:51:17.477Z,99.99
2017-06-18T03:51:45.630Z,99.99
2017-06-18T03:52:13.748Z,99.99
2017-06-18T03:52:41.781Z,99.99
2017-06-18T03:53:09.881Z,99.99
2017-06-18T03:53:38.001Z,99.99
2017-06-18T03:54:06.036Z,99.99
2017-06-18T03:54:34.090Z,99.99
2017-06-18T03:55:02.033Z,99.99
2017-06-18T03:55:30.168Z,99.99
2017-06-18T03:55:58.209Z,99.99
2017-06-18T03:56:26.336Z,99.99
2017-06-18T03:56:54.481Z,99.99
2017-06-18T03:57:22.608Z,99.99
2017-06-18T03:57:50.649Z,99.99
2017-06-18T03:58:18.697Z,99.99
2017-06-18T03:58:46.859Z,99.99
2017-06-18T03:59:14.995Z,99.99
2017-06-18T03:59:43.025Z,99.99
2017-06-18T04:00:11.162Z,99.99
2017-06-18T04:00:39.745Z,99.99
2017-06-18T04:01:07.908Z,99.99
2017-06-18T04:01:35.934Z,99.99
2017-06-18T04:02:03.997Z,99.99
2017-06-18T04:02:32.054Z,99.99
2017-06-18T04:03:00.160Z,99.99
2017-06-18T04:03:28.293Z,99.99
2017-06-18T04:03:56.349Z,99.99
2017-06-18T04:04:24.506Z,99.99
2017-06-18T04:04:52.532Z,99.99
2017-06-18T04:05:20.544Z,99.99
2017-06-18T04:05:48.657Z,99.99
2017-06-18T04:06:16.787Z,99.99
2017-06-18T04:06:44.840Z,99.99
2017-06-18T04:07:13.016Z,99.99
2017-06-18T04:07:41.145Z,99.99
2017-06-18T04:08:09.088Z,99.99
2017-06-18T04:08:37.227Z,99.99
2017-06-18T04:09:05.387Z,99.99
2017-06-18T04:09:33.532Z,99.99
2017-06-18T04:10:01.663Z,99.99
2017-06-18T04:10:29.815Z,99.99
2017-06-18T04:10:57.762Z,99.99
2017-06-18T04:11:25.907Z,99.99
2017-06-18T04:11:54.030Z,99.99
2017-06-18T04:12:22.162Z,99.99
2017-06-18T04:12:50.306Z,99.99
2017-06-18T04:13:18.488Z,99.99
2017-06-18T04:13:46.631Z,99.99
2017-06-18T04:14:19.116Z,99.99
2017-06-18T04:14:47.146Z,99.99
2017-06-18T04:15:15.276Z,99.99
2017-06-18T04:15:43.434Z,99.99
2017-06-18T04:16:11.549Z,99.99
2017-06-18T04:16:39.672Z,99.99
2017-06-18T04:17:07.683Z,99.99
2017-06-18T04:17:35.799Z,99.99
2017-06-18T04:18:03.952Z,99.99
2017-06-18T04:18:32.099Z,99.99
2017-06-18T04:19:00.234Z,99.99
2017-06-18T04:19:28.344Z,99.99
2017-06-18T04:19:56.512Z,99.99
2017-06-18T04:20:24.678Z,99.99
2017-06-18T04:20:52.807Z,99.99
2017-06-18T04:21:20.967Z,99.99
2017-06-18T04:21:49.031Z,99.99
2017-06-18T04:22:17.184Z,99.99
2017-06-18T04:22:45.237Z,99.99
2017-06-18T04:23:13.385Z,99.99
2017-06-18T04:23:41.674Z,99.99
2017-06-18T04:24:09.828Z,99.99
2017-06-18T04:24:37.791Z,99.99
2017-06-18T04:25:05.829Z,99.99
2017-06-18T04:25:33.959Z,99.99
2017-06-18T04:26:02.060Z,99.99
2017-06-18T04:26:30.662Z,99.99
2017-06-18T04:26:58.781Z,99.99
2017-06-18T04:27:26.921Z,99.99
2017-06-18T04:27:55.054Z,99.99
2017-06-18T04:28:23.101Z,99.99
2017-06-18T04:28:51.232Z,99.99
2017-06-18T04:29:19.198Z,99.99
2017-06-18T04:29:47.345Z,99.99
2017-06-18T04:30:15.504Z,99.99
2017-06-18T04:30:43.599Z,99.99
2017-06-18T04:31:11.740Z,99.99
2017-06-18T04:31:39.773Z,99.99
2017-06-18T04:32:07.924Z,99.99
2017-06-18T04:32:35.981Z,99.99
2017-06-18T04:33:04.026Z,99.99
2017-06-18T04:33:32.150Z,99.99
2017-06-18T04:34:00.204Z,99.99
2017-06-18T04:34:28.351Z,99.99
2017-06-18T04:34:56.506Z,99.99
2017-06-18T04:35:24.552Z,99.99
2017-06-18T04:35:52.774Z,99.99
2017-06-18T04:36:20.985Z,99.99
2017-06-18T04:36:49.600Z,99.99
2017-06-18T04:37:18.108Z,99.99
2017-06-18T04:37:46.750Z,99.99
2017-06-18T04:38:15.218Z,99.99
2017-06-18T04:38:43.753Z,99.99
2017-06-18T04:39:12.297Z,99.99
2017-06-18T04:39:40.841Z,99.99
2017-06-18T04:40:09.249Z,99.99
2017-06-18T04:40:37.871Z,99.99
2017-06-18T04:41:06.472Z,99.99
2017-06-18T04:41:35.006Z,99.99
2017-06-18T04:42:03.631Z,99.99
2017-06-18T04:42:32.237Z,99.99
2017-06-18T04:43:00.674Z,99.99
2017-06-18T04:43:29.207Z,99.99
2017-06-18T04:43:57.748Z,99.99
2017-06-18T04:44:26.380Z,99.99
2017-06-18T04:44:54.988Z,99.99
2017-06-18T04:45:23.604Z,99.99
2017-06-18T04:45:52.131Z,99.99
2017-06-18T04:46:20.668Z,99.99
2017-06-18T04:46:49.274Z,99.99
2017-06-18T04:47:17.907Z,99.99
2017-06-18T04:47:46.532Z,99.99
2017-06-18T04:48:15.190Z,99.99
2017-06-18T04:48:43.903Z,99.99
2017-06-18T04:49:12.661Z,99.99
2017-06-18T04:49:41.268Z,99.99
2017-06-18T04:50:09.776Z,99.99
2017-06-18T04:50:38.409Z,99.99
2017-06-18T04:51:07.047Z,99.99
2017-06-18T04:51:35.689Z,99.99
2017-06-18T04:52:04.248Z,99.99
2017-06-18T04:52:32.782Z,99.99
2017-06-18T04:53:01.426Z,99.99
2017-06-18T04:53:30.052Z,99.99
2017-06-18T04:53:58.564Z,99.99
2017-06-18T04:54:27.012Z,99.99
2017-06-18T04:54:55.642Z,99.99
2017-06-18T04:55:24.269Z,99.99
2017-06-18T04:55:52.877Z,99.99
2017-06-18T04:56:21.380Z,99.99
2017-06-18T04:56:50.281Z,99.99
2017-06-18T04:57:18.908Z,99.99
2017-06-18T04:57:47.331Z,99.99
2017-06-18T04:58:15.943Z,99.99
2017-06-18T04:58:44.456Z,99.99
2017-06-18T04:59:13.091Z,99.99
2017-06-18T04:59:41.722Z,99.99
2017-06-18T05:00:10.369Z,99.99
2017-06-18T05:00:38.909Z,99.99
2017-06-18T05:01:07.428Z,99.99
2017-06-18T05:01:36.065Z,99.99
2017-06-18T05:02:04.674Z,99.99
2017-06-18T05:02:33.213Z,99.99
2017-06-18T05:03:01.661Z,99.99
2017-06-18T05:03:30.163Z,99.99
2017-06-18T05:03:58.690Z,99.99
2017-06-18T05:04:27.190Z,99.99
2017-06-18T05:04:55.772Z,99.99
2017-06-18T05:05:24.417Z,99.99
2017-06-18T05:05:53.055Z,99.99
2017-06-18T05:06:21.404Z,99.99
2017-06-18T05:06:50.005Z,99.99
2017-06-18T05:07:18.624Z,99.99
2017-06-18T05:07:47.146Z,99.99
2017-06-18T05:08:15.598Z,99.99
2017-06-18T05:08:44.333Z,99.99
2017-06-18T05:09:12.853Z,99.99
2017-06-18T05:09:41.365Z,99.99
2017-06-18T05:10:09.980Z,99.99
2017-06-18T05:10:52.900Z,99.99
2017-06-18T05:11:21.508Z,99.99
2017-06-18T05:11:50.110Z,99.99
2017-06-18T05:12:18.653Z,99.99
2017-06-18T05:12:47.250Z,99.99
2017-06-18T05:13:15.825Z,99.99
2017-06-18T05:13:44.417Z,99.99
2017-06-18T05:14:13.046Z,99.99
2017-06-18T05:14:41.671Z,99.99
2017-06-18T05:15:10.079Z,99.99
2017-06-18T05:15:38.665Z,99.99
2017-06-18T05:16:07.268Z,99.99
2017-06-18T05:16:35.889Z,99.99
2017-06-18T05:17:04.492Z,99.99
2017-06-18T05:17:33.004Z,99.99
2017-06-18T05:18:01.358Z,99.99
2017-06-18T05:18:29.884Z,99.99
2017-06-18T05:18:58.502Z,99.99
2017-06-18T05:19:27.128Z,99.99
2017-06-18T05:19:55.626Z,99.99
2017-06-18T05:20:24.131Z,99.99
2017-06-18T05:20:52.643Z,99.99
2017-06-18T05:21:21.170Z,99.99
2017-06-18T05:21:49.691Z,99.99
2017-06-18T05:22:18.223Z,99.99
2017-06-18T05:22:46.747Z,99.99
2017-06-18T05:23:15.344Z,99.99
2017-06-18T05:23:43.869Z,99.99
2017-06-18T05:24:12.456Z,99.99
2017-06-18T05:24:40.989Z,99.99
2017-06-18T05:25:09.615Z,99.99
2017-06-18T05:25:38.057Z,99.99
2017-06-18T05:26:06.651Z,99.99
2017-06-18T05:26:35.242Z,99.99
2017-06-18T05:27:03.772Z,99.99
2017-06-18T05:27:32.285Z,99.99
2017-06-18T05:28:00.779Z,99.99
2017-06-18T05:28:29.274Z,99.99
2017-06-18T05:28:57.865Z,99.99
2017-06-18T05:29:26.464Z,99.99
2017-06-18T05:29:55.097Z,99.99
2017-06-18T05:30:23.601Z,99.99
2017-06-18T05:30:52.125Z,99.99
2017-06-18T05:31:20.728Z,99.99
2017-06-18T05:31:49.324Z,99.99
2017-06-18T05:32:17.854Z,99.99
2017-06-18T05:32:46.481Z,99.99
2017-06-18T05:33:14.984Z,99.99
2017-06-18T05:33:43.604Z,99.99
2017-06-18T05:34:12.136Z,99.99
2017-06-18T05:34:40.751Z,99.99
2017-06-18T05:35:09.343Z,99.99
2017-06-18T05:35:37.866Z,99.99
2017-06-18T05:36:06.456Z,99.99
2017-06-18T05:36:35.085Z,99.99
2017-06-18T05:37:03.696Z,99.99
2017-06-18T05:37:32.316Z,99.99
2017-06-18T05:38:00.922Z,99.99
2017-06-18T05:38:29.542Z,99.99
2017-06-18T05:38:58.150Z,99.99
2017-06-18T05:39:26.752Z,99.99
2017-06-18T05:39:55.369Z,99.99
2017-06-18T05:40:23.811Z,99.99
2017-06-18T05:40:52.414Z,99.99
2017-06-18T05:41:20.934Z,99.99
2017-06-18T05:41:49.450Z,99.99
2017-06-18T05:42:18.076Z,99.99
2017-06-18T05:42:46.568Z,99.99
2017-06-18T05:43:15.098Z,99.99
2017-06-18T05:43:43.719Z,99.99
2017-06-18T05:44:12.329Z,99.99
2017-06-18T05:44:40.907Z,99.99
2017-06-18T05:45:09.522Z,99.99
2017-06-18T05:45:38.114Z,99.99
2017-06-18T05:46:06.712Z,99.99
2017-06-18T05:46:35.197Z,99.99
2017-06-18T05:47:03.826Z,99.99
2017-06-18T05:47:32.464Z,99.99
2017-06-18T05:48:01.057Z,99.99
2017-06-18T05:48:29.658Z,99.99
2017-06-18T05:48:58.257Z,99.99
2017-06-18T05:49:26.881Z,99.99
2017-06-18T05:49:55.467Z,99.99
2017-06-18T05:50:24.077Z,99.99
2017-06-18T05:50:52.575Z,99.99
2017-06-18T05:51:21.193Z,99.99
2017-06-18T05:51:49.834Z,99.99
2017-06-18T05:52:18.458Z,99.99
2017-06-18T05:52:46.955Z,99.99
2017-06-18T05:53:15.458Z,99.99
2017-06-18T05:53:44.077Z,99.99
2017-06-18T05:54:12.607Z,99.99
2017-06-18T05:54:41.212Z,99.99
2017-06-18T05:55:09.718Z,99.99
2017-06-18T05:55:38.333Z,99.99
2017-06-18T05:56:06.948Z,99.99
2017-06-18T05:56:35.362Z,99.99
2017-06-18T05:57:03.993Z,99.99
2017-06-18T05:57:32.531Z,99.99
2017-06-18T05:58:01.150Z,99.99
2017-06-18T05:58:29.737Z,99.99
2017-06-18T05:58:58.350Z,99.99
2017-06-18T05:59:26.887Z,99.99
2017-06-18T05:59:55.483Z,99.99
2017-06-18T06:00:24.090Z,99.99
2017-06-18T06:00:52.587Z,99.99
2017-06-18T06:01:21.090Z,99.99
2017-06-18T06:01:49.691Z,99.99
2017-06-18T06:02:18.220Z,99.99
2017-06-18T06:02:46.634Z,99.99
2017-06-18T06:03:15.141Z,99.99
2017-06-18T06:03:43.738Z,99.99
2017-06-18T06:04:12.323Z,99.99
2017-06-18T06:04:40.925Z,99.99
2017-06-18T06:05:09.518Z,99.99
2017-06-18T06:05:38.140Z,99.99
2017-06-18T06:06:06.748Z,99.99